Time;durP1;ratioP1;P1;durP2;ratioP2;P2;SDS_P1;SDS_P2;PMS_P1;PMS_P2;Temp;Humidity;BMP_temperature;BMP_pressure;BME280_temperature;BME280_humidity;BME280_pressure;Samples;Min_cycle;Max_cycle;Signal;HPM_P1;HPM_P2
2022/01/23 00:01:14;;;;;;;61.88;35.13;;;8.00;99.90;;;;;;5033400;28;20044;-73
2022/01/23 00:03:45;;;;;;;59.05;34.67;;;7.90;99.90;;;;;;5038814;28;20025;-74
2022/01/23 00:06:11;;;;;;;61.92;34.75;;;7.90;99.90;;;;;;5045010;28;20068;-74
2022/01/23 00:08:36;;;;;;;57.25;34.97;;;8.00;99.90;;;;;;5046372;28;20446;-74
2022/01/23 00:11:02;;;;;;;58.88;33.28;;;7.90;99.90;;;;;;5045352;28;20029;-73
2022/01/23 00:13:36;;;;;;;62.42;35.22;;;7.90;99.90;;;;;;5043248;28;20466;-73
2022/01/23 00:18:45;;;;;;;65.75;35.10;;;7.90;99.90;;;;;;5044836;28;20048;-73
2022/01/23 00:21:11;;;;;;;62.00;37.50;;;8.00;99.90;;;;;;5045889;28;20029;-74
2022/01/23 00:31:37;;;;;;;70.95;39.03;;;7.90;99.90;;;;;;5036611;28;20075;-74
2022/01/23 00:34:02;;;;;;;71.30;38.70;;;7.90;99.90;;;;;;5045580;28;20052;-73
2022/01/23 00:36:29;;;;;;;75.03;40.55;;;7.80;99.90;;;;;;5049493;28;20071;-74
2022/01/23 00:38:55;;;;;;;70.07;41.33;;;7.90;99.90;;;;;;5044746;28;20037;-74
2022/01/23 00:41:21;;;;;;;71.00;41.78;;;7.90;99.90;;;;;;5045486;28;20038;-74
2022/01/23 00:43:49;;;;;;;66.20;41.38;;;7.90;99.90;;;;;;5040565;28;20142;-73
2022/01/23 00:49:13;;;;;;;77.45;43.53;;;7.90;99.90;;;;;;5038023;28;20030;-73
2022/01/23 00:51:37;;;;;;;72.05;39.55;;;7.90;99.90;;;;;;5044343;28;20346;-74
2022/01/23 00:54:06;;;;;;;67.85;39.85;;;7.90;99.90;;;;;;5038188;28;20026;-74
2022/01/23 00:56:33;;;;;;;74.57;40.85;;;7.90;99.90;;;;;;5046771;28;20094;-74
2022/01/23 00:58:59;;;;;;;72.55;39.47;;;7.90;99.90;;;;;;5041269;28;20040;-73
2022/01/23 01:01:26;;;;;;;76.45;42.45;;;7.90;99.90;;;;;;5042588;28;20037;-74
2022/01/23 01:03:52;;;;;;;70.15;42.67;;;8.00;99.90;;;;;;5039814;28;20405;-74
2022/01/23 01:06:17;;;;;;;73.05;41.15;;;8.00;99.90;;;;;;5038316;28;20501;-74
2022/01/23 01:08:44;;;;;;;74.65;42.92;;;8.00;99.90;;;;;;5039931;28;20045;-73
2022/01/23 01:14:26;;;;;;;79.90;45.45;;;8.00;99.90;;;;;;5045065;28;20448;-74
2022/01/23 01:35:28;;;;;;;79.80;43.78;;;7.80;99.90;;;;;;5039131;28;20029;-75
2022/01/23 01:37:53;;;;;;;73.43;42.28;;;7.80;99.90;;;;;;5037847;28;20032;-74
2022/01/23 01:40:21;;;;;;;77.32;40.13;;;7.90;99.90;;;;;;5037297;28;20386;-75
2022/01/23 01:42:47;;;;;;;74.50;40.38;;;7.90;99.90;;;;;;5045290;28;20037;-75
2022/01/23 01:45:13;;;;;;;79.65;42.50;;;7.90;99.90;;;;;;5036532;28;20515;-75
2022/01/23 01:47:47;;;;;;;81.30;44.30;;;7.90;99.90;;;;;;5045086;28;20533;-75
2022/01/23 01:50:13;;;;;;;87.03;48.75;;;7.90;99.90;;;;;;5036119;28;20029;-75
2022/01/23 01:52:40;;;;;;;84.72;46.35;;;7.90;99.90;;;;;;5047356;28;20033;-75
2022/01/23 01:55:08;;;;;;;83.03;44.03;;;7.90;99.90;;;;;;5036220;28;20473;-75
2022/01/23 01:57:39;;;;;;;78.75;44.13;;;7.80;99.90;;;;;;5032680;28;20032;-75
2022/01/23 02:00:35;;;;;;;79.25;41.60;;;7.80;99.90;;;;;;5042005;28;20139;-75
2022/01/23 02:10:50;;;;;;;82.60;45.50;;;7.80;99.90;;;;;;5032701;28;20030;-75
2022/01/23 02:13:21;;;;;;;83.88;44.97;;;7.90;99.90;;;;;;5041668;28;20022;-74
2022/01/23 02:57:05;;;;;;;85.90;46.70;;;7.70;99.90;;;;;;5046173;28;20059;-75
2022/01/23 02:59:35;;;;;;;86.03;44.35;;;7.70;99.90;;;;;;5043002;28;20060;-75
2022/01/23 03:04:26;;;;;;;90.82;46.40;;;7.70;99.90;;;;;;5050163;28;20025;-74
2022/01/23 03:09:55;;;;;;;82.57;43.83;;;7.80;99.90;;;;;;5047297;28;20073;-73
2022/01/23 03:33:44;;;;;;;98.63;50.35;;;7.90;99.90;;;;;;5045115;28;20032;-75
2022/01/23 03:36:10;;;;;;;97.53;46.25;;;7.80;99.90;;;;;;5046274;28;20028;-74
2022/01/23 03:38:35;;;;;;;99.28;49.10;;;7.90;99.90;;;;;;5047647;28;20025;-74
2022/01/23 03:41:01;;;;;;;93.97;48.90;;;7.90;99.90;;;;;;5036572;28;20107;-74
2022/01/23 03:43:30;;;;;;;97.32;50.13;;;7.90;99.90;;;;;;5043578;28;20469;-74
2022/01/23 03:51:11;;;;;;;91.40;44.78;;;7.80;99.90;;;;;;5029162;28;20065;-75
2022/01/23 03:53:37;;;;;;;90.70;45.17;;;7.80;99.90;;;;;;5036620;28;20026;-75
2022/01/23 03:56:03;;;;;;;81.72;42.67;;;7.90;99.90;;;;;;5044245;28;20454;-75
2022/01/23 03:58:29;;;;;;;91.18;45.63;;;7.90;99.90;;;;;;5036714;28;20033;-75
2022/01/23 04:00:54;;;;;;;88.03;43.60;;;7.90;99.90;;;;;;5036706;28;20098;-75
2022/01/23 04:03:20;;;;;;;88.03;45.15;;;7.90;99.90;;;;;;5041321;28;20056;-75
2022/01/23 04:05:47;;;;;;;86.75;44.75;;;7.90;99.90;;;;;;5044013;28;20111;-75
2022/01/23 04:08:12;;;;;;;90.15;45.20;;;7.80;99.90;;;;;;5048186;28;20056;-74
2022/01/23 04:10:39;;;;;;;85.22;43.38;;;7.80;99.90;;;;;;5037468;28;20438;-75
2022/01/23 04:13:16;;;;;;;89.03;44.28;;;7.70;99.90;;;;;;5037652;28;20057;-74
2022/01/23 04:18:55;;;;;;;87.45;44.22;;;7.70;99.90;;;;;;5046842;28;20478;-74
2022/01/23 04:32:07;;;;;;;86.10;42.97;;;7.90;99.90;;;;;;5034480;28;20041;-74
2022/01/23 04:35:43;;;;;;;91.55;46.13;;;7.90;99.90;;;;;;5048056;28;20025;-74
2022/01/23 04:45:36;;;;;;;96.47;50.25;;;7.80;99.90;;;;;;5039808;28;20532;-73
2022/01/23 05:04:37;;;;;;;93.32;48.63;;;7.80;99.90;;;;;;5052747;28;20524;-74
2022/01/23 05:07:09;;;;;;;92.97;44.67;;;7.70;99.90;;;;;;5045789;28;20056;-74
2022/01/23 05:09:34;;;;;;;93.38;46.90;;;7.70;99.90;;;;;;5045963;28;20132;-76
2022/01/23 05:12:10;;;;;;;91.30;45.72;;;7.70;99.90;;;;;;5037565;28;20136;-74
2022/01/23 05:14:41;;;;;;;96.85;48.05;;;7.70;99.90;;;;;;5050199;28;20021;-74
2022/01/23 05:17:10;;;;;;;100.10;46.53;;;7.70;99.90;;;;;;5039082;28;20036;-74
2022/01/23 05:19:37;;;;;;;93.63;46.35;;;7.80;99.90;;;;;;5039931;28;20111;-74
2022/01/23 05:22:20;;;;;;;94.50;46.17;;;7.70;99.90;;;;;;5040598;28;20045;-74
2022/01/23 05:25:31;;;;;;;;;;;7.60;99.90;;;;;;5042300;28;20025;-74
2022/01/23 05:27:35;;;;;;;87.70;44.90;;;7.60;99.90;;;;;;5037195;28;19916;-73
2022/01/23 05:30:03;;;;;;;90.93;47.22;;;7.60;99.90;;;;;;5038350;28;20469;-74
2022/01/23 05:32:38;;;;;;;95.45;48.85;;;7.70;99.90;;;;;;5037026;28;20104;-74
2022/01/23 05:35:05;;;;;;;93.57;47.05;;;7.70;99.90;;;;;;5047540;28;20496;-74
2022/01/23 05:37:32;;;;;;;91.15;48.70;;;7.70;99.90;;;;;;5027663;28;20131;-74
2022/01/23 05:39:58;;;;;;;94.38;47.95;;;7.60;99.90;;;;;;5040736;28;20087;-74
2022/01/23 05:42:24;;;;;;;89.95;46.08;;;7.70;99.90;;;;;;5042070;28;20029;-74
2022/01/23 05:44:49;;;;;;;94.97;49.28;;;7.70;99.90;;;;;;5039170;28;20034;-73
2022/01/23 05:47:15;;;;;;;97.50;49.67;;;7.70;99.90;;;;;;5038681;28;20040;-74
2022/01/23 05:49:41;;;;;;;93.40;46.45;;;7.70;99.90;;;;;;5038944;28;20433;-74
2022/01/23 05:52:09;;;;;;;91.35;46.60;;;7.70;99.90;;;;;;5046252;28;20032;-74
2022/01/23 05:54:35;;;;;;;94.25;47.65;;;7.80;99.90;;;;;;5041447;28;20234;-74
2022/01/23 05:57:00;;;;;;;93.78;48.33;;;7.80;99.90;;;;;;5038545;28;20032;-73
2022/01/23 05:59:26;;;;;;;93.30;48.35;;;7.80;99.90;;;;;;5049296;28;20025;-74
2022/01/23 06:01:53;;;;;;;90.40;48.15;;;7.80;99.90;;;;;;5051982;28;20036;-74
2022/01/23 06:04:19;;;;;;;89.05;47.40;;;7.80;99.90;;;;;;5041283;28;20045;-74
2022/01/23 06:06:46;;;;;;;83.78;44.70;;;7.80;99.90;;;;;;5039537;28;20071;-74
2022/01/23 06:09:12;;;;;;;88.05;47.08;;;7.80;99.90;;;;;;5043610;28;20021;-74
2022/01/23 06:11:37;;;;;;;89.82;44.40;;;7.80;99.90;;;;;;5046050;28;20025;-74
2022/01/23 06:14:03;;;;;;;92.93;48.83;;;7.60;99.90;;;;;;5043435;28;20025;-74
2022/01/23 06:16:29;;;;;;;87.03;45.25;;;7.60;99.90;;;;;;5041671;28;20032;-74
2022/01/23 06:18:54;;;;;;;86.82;44.40;;;7.70;99.90;;;;;;5037241;28;20129;-74
2022/01/23 06:21:21;;;;;;;96.22;48.28;;;7.70;99.90;;;;;;5045252;28;20055;-74
2022/01/23 06:23:55;;;;;;;87.05;44.47;;;7.70;99.90;;;;;;5043180;28;20048;-74
2022/01/23 06:26:22;;;;;;;87.05;46.78;;;7.70;99.90;;;;;;5044172;28;20033;-74
2022/01/23 06:28:58;;;;;;;82.13;43.25;;;7.70;99.90;;;;;;5038503;28;20037;-74
2022/01/23 06:31:24;;;;;;;81.47;41.92;;;7.70;99.90;;;;;;5046274;28;20066;-74
2022/01/23 06:33:50;;;;;;;84.45;43.63;;;7.60;99.90;;;;;;5036721;28;20048;-73
2022/01/23 06:36:15;;;;;;;86.75;44.50;;;7.70;99.90;;;;;;5045405;28;20034;-74
2022/01/23 06:38:41;;;;;;;84.35;43.10;;;7.60;99.90;;;;;;5035883;28;20025;-74
2022/01/23 06:41:07;;;;;;;86.95;45.47;;;7.60;99.90;;;;;;5040811;28;20136;-73
2022/01/23 06:43:32;;;;;;;80.43;43.03;;;7.60;99.90;;;;;;5048090;28;20476;-74
2022/01/23 06:45:58;;;;;;;96.55;45.50;;;7.60;99.90;;;;;;5044316;28;20025;-74
2022/01/23 06:48:24;;;;;;;85.25;43.65;;;7.70;99.90;;;;;;5036047;28;20029;-74
2022/01/23 06:50:50;;;;;;;90.07;49.33;;;7.60;99.90;;;;;;5043041;28;20029;-73
2022/01/23 06:53:16;;;;;;;93.45;45.33;;;7.70;99.90;;;;;;5047233;28;20017;-74
2022/01/23 06:55:41;;;;;;;94.65;48.33;;;7.70;99.90;;;;;;5048527;28;20031;-74
2022/01/23 06:58:07;;;;;;;86.72;45.08;;;7.70;99.90;;;;;;5029714;28;20394;-74
2022/01/23 07:00:33;;;;;;;89.32;44.67;;;7.80;99.90;;;;;;5041438;28;20025;-74
2022/01/23 07:02:59;;;;;;;86.03;42.20;;;7.80;99.90;;;;;;5043776;28;20032;-74
2022/01/23 07:05:25;;;;;;;88.50;43.97;;;7.80;99.90;;;;;;5042530;28;20374;-74
2022/01/23 07:07:50;;;;;;;88.63;45.60;;;7.80;99.90;;;;;;5035051;28;20032;-74
2022/01/23 07:10:18;;;;;;;83.80;43.28;;;7.70;99.90;;;;;;5041768;28;20026;-74
2022/01/23 07:12:43;;;;;;;89.38;46.80;;;7.70;99.90;;;;;;5045686;28;20047;-74
2022/01/23 07:15:09;;;;;;;90.63;47.80;;;7.70;99.90;;;;;;5046597;28;20450;-74
2022/01/23 07:17:42;;;;;;;87.68;46.35;;;7.70;99.90;;;;;;5040699;28;20040;-74
2022/01/23 07:20:08;;;;;;;84.38;46.65;;;7.70;99.90;;;;;;5030172;28;20377;-76
2022/01/23 07:22:34;;;;;;;89.93;45.92;;;7.80;99.90;;;;;;5045656;28;20099;-75
2022/01/23 07:25:02;;;;;;;85.20;43.92;;;7.80;99.90;;;;;;5045899;28;20444;-75
2022/01/23 07:27:32;;;;;;;89.18;44.78;;;7.90;99.90;;;;;;5038568;28;20116;-75
2022/01/23 07:29:58;;;;;;;90.25;43.92;;;7.90;99.90;;;;;;5037529;28;20030;-75
2022/01/23 07:32:24;;;;;;;87.30;41.92;;;7.80;99.90;;;;;;5040215;28;20386;-75
2022/01/23 07:34:49;;;;;;;83.78;42.40;;;7.70;99.90;;;;;;5047174;28;20104;-74
2022/01/23 07:37:15;;;;;;;85.38;42.67;;;7.60;99.90;;;;;;5039479;28;20118;-75
2022/01/23 07:39:41;;;;;;;76.95;41.05;;;7.50;99.90;;;;;;5036850;28;20022;-75
2022/01/23 07:42:07;;;;;;;80.45;40.67;;;7.60;99.90;;;;;;5043210;28;20056;-75
2022/01/23 07:44:33;;;;;;;83.82;42.35;;;7.70;99.90;;;;;;5047788;28;20023;-74
2022/01/23 07:46:58;;;;;;;85.50;44.42;;;7.70;99.90;;;;;;5036754;28;20037;-75
2022/01/23 07:49:24;;;;;;;81.60;41.88;;;7.70;99.90;;;;;;5035383;28;20464;-74
2022/01/23 07:51:50;;;;;;;77.18;42.00;;;7.80;99.90;;;;;;5042765;28;20056;-74
2022/01/23 07:54:15;;;;;;;81.15;42.83;;;7.80;99.90;;;;;;5046828;28;20029;-74
2022/01/23 07:56:42;;;;;;;83.50;42.88;;;7.80;99.90;;;;;;5047297;28;20025;-74
2022/01/23 07:59:09;;;;;;;84.57;43.83;;;7.80;99.90;;;;;;5039851;28;20030;-74
2022/01/23 08:01:38;;;;;;;81.65;42.88;;;7.80;99.90;;;;;;5039294;28;20346;-74
2022/01/23 08:04:05;;;;;;;87.25;43.17;;;7.80;99.90;;;;;;5034668;28;20570;-74
2022/01/23 08:06:33;;;;;;;87.28;43.88;;;7.70;99.90;;;;;;5043259;28;20071;-74
2022/01/23 08:08:59;;;;;;;83.72;46.13;;;7.70;99.90;;;;;;5041294;28;20043;-74
2022/01/23 08:11:25;;;;;;;87.53;48.33;;;7.80;99.90;;;;;;5041224;28;20021;-74
2022/01/23 08:13:50;;;;;;;87.40;44.92;;;7.80;99.90;;;;;;5036910;28;20473;-75
2022/01/23 08:16:16;;;;;;;81.13;45.58;;;7.80;99.90;;;;;;5042033;28;20532;-74
2022/01/23 08:18:42;;;;;;;82.90;44.40;;;7.80;99.90;;;;;;5043633;28;20450;-74
2022/01/23 08:21:08;;;;;;;82.50;41.38;;;7.80;99.90;;;;;;5042948;28;20029;-74
2022/01/23 08:23:33;;;;;;;77.85;41.92;;;7.70;99.90;;;;;;5041767;28;20053;-74
2022/01/23 08:25:59;;;;;;;77.57;40.53;;;7.80;99.90;;;;;;5041903;28;20102;-74
2022/01/23 08:28:25;;;;;;;85.38;41.33;;;7.80;99.90;;;;;;5046427;28;20042;-75
2022/01/23 08:30:51;;;;;;;86.85;42.65;;;7.90;99.90;;;;;;5042128;28;20044;-75
2022/01/23 08:33:17;;;;;;;82.53;41.78;;;7.90;99.90;;;;;;5048608;28;20079;-74
2022/01/23 08:35:45;;;;;;;86.38;43.67;;;7.90;99.90;;;;;;5051106;28;20484;-75
2022/01/23 08:38:13;;;;;;;89.10;44.60;;;7.90;99.90;;;;;;5037573;28;20029;-74
2022/01/23 08:43:08;;;;;;;90.13;45.53;;;7.90;99.90;;;;;;5038382;28;20093;-74
2022/01/23 08:45:34;;;;;;;91.22;46.47;;;7.90;99.90;;;;;;5045874;28;20056;-76
2022/01/23 08:47:59;;;;;;;90.95;45.33;;;8.00;99.90;;;;;;5050830;28;20055;-76
2022/01/23 08:50:25;;;;;;;85.63;45.13;;;7.90;99.90;;;;;;5040236;28;20040;-76
2022/01/23 08:52:51;;;;;;;85.95;44.92;;;7.90;99.90;;;;;;5045882;28;20032;-76
2022/01/23 08:55:17;;;;;;;86.93;44.42;;;7.90;99.90;;;;;;5049436;28;20025;-76
2022/01/23 08:57:43;;;;;;;91.40;46.80;;;7.90;99.90;;;;;;5053019;28;20489;-75
2022/01/23 09:00:09;;;;;;;94.30;47.53;;;7.90;99.90;;;;;;5038175;28;20374;-77
2022/01/23 09:02:35;;;;;;;94.13;47.42;;;7.90;99.90;;;;;;5037253;28;20037;-77
2022/01/23 09:05:01;;;;;;;92.18;44.38;;;7.90;99.90;;;;;;5050341;28;20449;-77
2022/01/23 09:07:26;;;;;;;88.72;45.42;;;8.00;99.90;;;;;;5050276;28;20040;-77
2022/01/23 09:10:00;;;;;;;85.70;43.15;;;8.00;99.90;;;;;;5040219;28;20022;-76
2022/01/23 09:15:04;;;;;;;89.88;45.17;;;8.00;99.90;;;;;;5037080;28;20470;-76
2022/01/23 09:17:30;;;;;;;87.30;45.95;;;8.10;99.90;;;;;;5050629;28;20027;-76
2022/01/23 09:19:55;;;;;;;94.30;46.33;;;8.10;99.90;;;;;;5039155;28;20108;-76
2022/01/23 09:22:21;;;;;;;86.30;45.20;;;8.00;99.90;;;;;;5044480;28;20044;-76
2022/01/23 09:24:47;;;;;;;91.18;46.53;;;8.00;99.90;;;;;;5040833;28;20413;-77
2022/01/23 09:27:18;;;;;;;92.18;47.35;;;8.00;99.90;;;;;;5044953;28;20044;-78
2022/01/23 09:29:48;;;;;;;85.33;45.63;;;7.90;99.90;;;;;;5038688;28;20021;-74
2022/01/23 09:32:15;;;;;;;87.35;46.75;;;7.90;99.90;;;;;;5042142;28;20083;-76
2022/01/23 09:34:42;;;;;;;89.18;46.92;;;7.90;99.90;;;;;;5051107;28;20021;-77
2022/01/23 09:37:11;;;;;;;90.80;47.60;;;8.00;99.90;;;;;;5043909;28;20065;-76
2022/01/23 09:39:39;;;;;;;97.63;51.30;;;7.90;99.90;;;;;;5040736;28;20044;-77
2022/01/23 09:42:11;;;;;;;93.82;49.33;;;8.00;99.90;;;;;;5042897;28;20517;-76
2022/01/23 09:45:03;;;;;;;97.63;51.50;;;7.90;99.90;;;;;;5045896;28;20020;-76
2022/01/23 09:47:29;;;;;;;93.17;48.40;;;7.90;99.90;;;;;;5049946;28;20075;-76
2022/01/23 09:49:56;;;;;;;103.05;51.78;;;8.00;99.90;;;;;;5038688;28;20322;-77
2022/01/23 09:52:22;;;;;;;90.00;43.75;;;8.00;99.90;;;;;;5037056;28;20060;-76
2022/01/23 09:55:00;;;;;;;84.18;43.42;;;7.90;99.90;;;;;;5048825;28;20021;-77
2022/01/23 09:57:30;;;;;;;88.25;44.20;;;7.80;99.90;;;;;;5040054;28;20037;-76
2022/01/23 09:59:57;;;;;;;87.80;47.28;;;7.80;99.90;;;;;;5044644;28;20424;-77
2022/01/23 10:02:23;;;;;;;88.50;45.65;;;7.80;99.90;;;;;;5039430;28;20470;-77
2022/01/23 10:04:53;;;;;;;88.78;42.97;;;7.80;99.90;;;;;;5037315;28;20028;-77
2022/01/23 10:07:20;;;;;;;85.75;47.28;;;7.90;99.90;;;;;;5038653;28;20040;-76
2022/01/23 10:09:52;;;;;;;81.22;44.67;;;8.00;99.90;;;;;;5045573;28;20381;-77
2022/01/23 10:12:19;;;;;;;82.10;43.60;;;8.10;99.90;;;;;;5040573;28;20481;-75
2022/01/23 10:14:45;;;;;;;77.05;41.95;;;8.10;99.90;;;;;;5039346;28;20041;-75
2022/01/23 10:17:10;;;;;;;82.55;45.60;;;8.20;99.90;;;;;;5037673;28;20074;-75
2022/01/23 10:19:37;;;;;;;85.63;42.95;;;8.30;99.90;;;;;;5038972;28;20113;-75
2022/01/23 10:22:05;;;;;;;74.18;39.03;;;8.30;99.90;;;;;;5037664;28;20056;-76
2022/01/23 10:24:31;;;;;;;80.15;41.97;;;8.30;99.90;;;;;;5038382;28;20025;-75
2022/01/23 10:26:59;;;;;;;76.28;41.90;;;8.30;99.90;;;;;;5037926;28;20091;-75
2022/01/23 10:29:35;;;;;;;77.22;41.88;;;8.30;99.90;;;;;;5034673;28;20052;-76
2022/01/23 10:32:04;;;;;;;75.97;40.70;;;8.30;99.90;;;;;;5037315;28;20061;-74
2022/01/23 10:34:48;;;;;;;74.28;39.75;;;8.30;99.90;;;;;;5037035;28;20044;-76
2022/01/23 10:37:37;;;;;;;70.78;39.22;;;8.20;99.90;;;;;;5040342;28;20536;-75
2022/01/23 10:40:22;;;;;;;71.30;39.75;;;8.20;99.90;;;;;;5034154;28;20037;-76
2022/01/23 10:48:52;;;;;;;;;;;8.40;99.90;;;;;;5034045;28;20099;-75
2022/01/23 10:51:21;;;;;;;68.38;36.58;;;8.40;99.90;;;;;;5037600;28;19909;-75
2022/01/23 10:54:09;;;;;;;66.80;35.50;;;8.50;99.90;;;;;;5040650;28;20025;-75
2022/01/23 10:56:53;;;;;;;65.47;34.90;;;8.50;99.90;;;;;;5034075;28;20401;-76
2022/01/23 10:59:19;;;;;;;64.55;35.90;;;8.50;99.90;;;;;;5030586;28;20036;-77
2022/01/23 11:02:07;;;;;;;65.65;33.75;;;8.50;99.90;;;;;;5037061;28;20219;-77
2022/01/23 11:04:48;;;;;;;60.53;32.78;;;8.50;99.90;;;;;;5038467;28;20040;-77
2022/01/23 11:07:14;;;;;;;59.63;34.85;;;8.50;99.90;;;;;;5032318;28;20031;-75
2022/01/23 11:09:41;;;;;;;67.90;35.35;;;8.50;99.90;;;;;;5037137;28;20112;-77
2022/01/23 11:17:57;;;;;;;60.60;34.08;;;8.60;99.90;;;;;;5040196;28;20032;-76
2022/01/23 11:20:48;;;;;;;70.10;36.15;;;8.60;99.90;;;;;;5041663;28;20017;-76
2022/01/23 11:23:31;;;;;;;63.10;33.33;;;8.60;99.90;;;;;;5036151;28;20459;-78
2022/01/23 11:25:57;;;;;;;63.10;33.85;;;8.60;99.90;;;;;;5041167;28;20024;-77
2022/01/23 11:28:43;;;;;;;61.47;33.75;;;8.50;99.90;;;;;;5037705;28;20547;-76
2022/01/23 11:31:12;;;;;;;58.58;32.08;;;8.50;99.90;;;;;;5032193;28;20028;-76
2022/01/23 11:33:40;;;;;;;58.47;30.30;;;8.60;99.90;;;;;;5035660;28;20060;-79
2022/01/23 11:36:06;;;;;;;56.40;32.17;;;8.50;99.90;;;;;;5038909;28;20478;-77
2022/01/23 11:38:32;;;;;;;57.75;32.33;;;8.70;99.90;;;;;;5034462;28;20058;-77
2022/01/23 11:55:03;;;;;;;50.05;29.00;;;8.80;99.90;;;;;;5043293;28;20039;-75
2022/01/23 11:57:39;;;;;;;52.92;31.10;;;8.90;99.90;;;;;;5040856;28;20036;-75
2022/01/23 12:00:11;;;;;;;45.38;27.52;;;8.90;99.90;;;;;;5035224;28;20048;-75
2022/01/23 12:02:40;;;;;;;48.67;28.40;;;8.80;99.90;;;;;;5026555;28;20033;-75
2022/01/23 12:05:12;;;;;;;49.72;28.58;;;8.80;99.90;;;;;;5042715;28;20592;-74
2022/01/23 12:07:40;;;;;;;46.40;27.05;;;8.80;99.90;;;;;;5044238;28;20390;-75
2022/01/23 12:10:09;;;;;;;48.47;28.23;;;8.80;99.90;;;;;;5038988;28;20037;-74
2022/01/23 12:12:41;;;;;;;42.78;26.25;;;8.80;99.90;;;;;;5047196;28;20028;-75
2022/01/23 12:18:22;;;;;;;46.60;26.95;;;8.90;99.90;;;;;;5040373;28;20546;-75
2022/01/23 12:20:50;;;;;;;45.33;27.77;;;8.90;99.90;;;;;;5037086;28;20367;-75
2022/01/23 12:23:16;;;;;;;42.47;26.05;;;9.00;99.90;;;;;;5045976;28;20059;-75
2022/01/23 12:25:41;;;;;;;45.60;27.33;;;8.90;99.90;;;;;;5042771;28;20017;-74
2022/01/23 12:28:28;;;;;;;47.47;28.52;;;9.00;99.90;;;;;;5031839;28;20402;-75
2022/01/23 12:31:12;;;;;;;43.05;26.83;;;9.00;99.90;;;;;;5039977;28;20033;-75
2022/01/23 12:33:49;;;;;;;45.53;24.45;;;9.00;99.90;;;;;;5038912;28;20108;-74
2022/01/23 12:36:15;;;;;;;46.28;27.98;;;9.00;99.90;;;;;;5037449;28;20037;-76
2022/01/23 12:38:47;;;;;;;41.40;24.08;;;9.10;99.90;;;;;;5045400;28;20435;-76
2022/01/23 12:41:22;;;;;;;41.55;24.38;;;9.10;99.90;;;;;;5043033;28;20029;-76
2022/01/23 12:43:49;;;;;;;38.47;23.63;;;9.10;99.90;;;;;;5048005;28;20120;-75
2022/01/23 12:46:26;;;;;;;37.03;23.42;;;9.10;99.90;;;;;;5035095;28;20521;-74
2022/01/23 12:48:52;;;;;;;38.85;23.30;;;9.10;99.90;;;;;;5049712;28;20100;-75
2022/01/23 12:51:17;;;;;;;38.20;23.13;;;9.10;99.90;;;;;;5045785;28;20148;-75
2022/01/23 12:53:46;;;;;;;41.63;24.23;;;9.10;99.90;;;;;;5044500;28;20124;-75
2022/01/23 12:56:14;;;;;;;38.30;23.40;;;9.00;99.90;;;;;;5038169;28;20040;-75
2022/01/23 12:58:41;;;;;;;39.33;22.88;;;9.10;99.90;;;;;;5043089;28;20026;-76
2022/01/23 13:01:16;;;;;;;37.50;23.77;;;9.10;99.90;;;;;;5041188;28;20025;-76
2022/01/23 13:03:50;;;;;;;38.80;23.08;;;9.00;99.90;;;;;;5044539;28;20531;-75
2022/01/23 13:06:16;;;;;;;41.00;24.23;;;9.10;99.90;;;;;;5038608;28;20433;-76
2022/01/23 13:08:50;;;;;;;41.92;25.27;;;9.00;99.90;;;;;;5044622;28;20484;-75
2022/01/23 13:11:51;;;;;;;39.75;23.88;;;9.10;99.90;;;;;;5039369;28;20482;-76
2022/01/23 13:14:04;;;;;;;38.08;23.27;;;9.10;99.90;;;;;;5039610;28;20033;-76
2022/01/23 13:19:23;;;;;;;34.33;22.35;;;9.20;99.90;;;;;;5043159;28;20041;-75
2022/01/23 13:26:29;;;;;;;35.75;22.13;;;9.20;99.90;;;;;;5036761;28;20045;-76
2022/01/23 13:30:34;;;;;;;33.92;22.23;;;9.20;99.90;;;;;;5036336;28;20136;-76
2022/01/23 13:33:09;;;;;;;32.90;21.02;;;9.20;99.90;;;;;;5039467;28;20035;-76
2022/01/23 13:35:39;;;;;;;35.22;21.90;;;9.20;99.90;;;;;;5043771;28;20030;-75
2022/01/23 13:38:10;;;;;;;34.13;20.63;;;9.20;99.90;;;;;;5038380;28;20527;-75
2022/01/23 13:40:41;;;;;;;31.95;19.75;;;9.20;99.90;;;;;;5039044;28;20083;-76
2022/01/23 13:59:56;;;;;;;25.67;15.82;;;9.30;99.90;;;;;;5031888;28;20052;-75
2022/01/23 14:02:24;;;;;;;23.98;15.80;;;9.30;99.90;;;;;;5037554;28;20044;-76
2022/01/23 14:04:55;;;;;;;30.33;17.42;;;9.30;99.90;;;;;;5036823;28;20031;-75
2022/01/23 14:07:24;;;;;;;37.90;22.88;;;9.30;99.90;;;;;;5044978;28;20039;-75
2022/01/23 14:09:50;;;;;;;39.85;22.70;;;9.30;99.90;;;;;;5040048;28;20147;-76
2022/01/23 14:12:18;;;;;;;39.30;23.60;;;9.40;99.90;;;;;;5042515;28;20018;-76
2022/01/23 14:14:57;;;;;;;35.65;22.80;;;9.40;99.90;;;;;;5043813;28;20052;-75
2022/01/23 14:17:25;;;;;;;36.58;22.23;;;9.40;99.90;;;;;;5045014;28;20032;-76
2022/01/23 14:20:02;;;;;;;38.20;23.48;;;9.50;99.90;;;;;;5039588;28;20028;-75
2022/01/23 14:22:31;;;;;;;37.67;23.05;;;9.50;99.90;;;;;;5039460;28;20641;-76
2022/01/23 14:25:16;;;;;;;35.30;22.98;;;9.50;99.90;;;;;;5037836;28;20026;-76
2022/01/23 14:27:45;;;;;;;34.85;20.20;;;9.50;99.90;;;;;;5034102;28;20030;-74
2022/01/23 14:30:15;;;;;;;29.50;19.23;;;9.40;99.90;;;;;;5034073;28;20113;-74
2022/01/23 14:32:49;;;;;;;34.03;21.80;;;9.40;99.90;;;;;;5035032;28;20017;-76
2022/01/23 14:35:25;;;;;;;28.92;19.73;;;9.40;99.90;;;;;;5033429;28;20017;-75
2022/01/23 14:37:52;;;;;;;35.55;20.67;;;9.40;99.90;;;;;;5034245;28;20104;-76
2022/01/23 14:40:23;;;;;;;31.13;19.60;;;9.40;99.90;;;;;;5037273;28;20530;-76
2022/01/23 14:43:09;;;;;;;28.15;16.40;;;9.40;99.90;;;;;;5036350;28;20065;-79
2022/01/23 14:45:43;;;;;;;25.75;16.45;;;9.40;99.90;;;;;;5038483;28;20456;-80
2022/01/23 14:48:10;;;;;;;25.30;16.42;;;9.40;99.90;;;;;;5032966;28;20071;-80
2022/01/23 14:50:39;;;;;;;29.73;18.40;;;9.40;99.90;;;;;;5038162;28;20033;-80
2022/01/23 14:53:07;;;;;;;29.35;17.85;;;9.40;99.90;;;;;;5047136;28;20374;-80
2022/01/23 14:55:34;;;;;;;30.80;17.75;;;9.40;99.90;;;;;;5035167;28;20469;-79
2022/01/23 14:58:01;;;;;;;31.05;18.70;;;9.40;99.90;;;;;;5032858;28;20508;-77
2022/01/23 15:00:30;;;;;;;27.48;17.65;;;9.30;99.90;;;;;;5033099;28;20033;-76
2022/01/23 15:02:56;;;;;;;28.45;17.90;;;9.30;99.90;;;;;;5031734;28;20048;-77
2022/01/23 15:05:24;;;;;;;29.63;17.52;;;9.40;99.90;;;;;;5032183;28;20539;-76
2022/01/23 15:07:51;;;;;;;30.50;18.42;;;9.30;99.90;;;;;;5035369;28;20057;-77
2022/01/23 15:10:16;;;;;;;29.63;18.40;;;9.30;99.90;;;;;;5032759;28;20021;-77
2022/01/23 15:12:42;;;;;;;33.35;20.02;;;9.20;99.90;;;;;;5036117;28;20033;-79
2022/01/23 15:15:08;;;;;;;28.55;17.30;;;9.20;99.90;;;;;;5029436;28;20033;-77
2022/01/23 15:17:36;;;;;;;31.90;18.02;;;9.30;99.90;;;;;;5035323;28;20096;-77
2022/01/23 15:20:03;;;;;;;28.33;17.13;;;9.20;99.90;;;;;;5031892;28;20112;-78
2022/01/23 15:22:29;;;;;;;30.23;18.08;;;9.30;99.90;;;;;;5032321;28;20029;-79
2022/01/23 15:24:54;;;;;;;32.20;20.02;;;9.30;99.90;;;;;;5027278;28;20511;-80
2022/01/23 15:27:20;;;;;;;30.17;18.90;;;9.30;99.90;;;;;;5034987;28;20051;-78
2022/01/23 15:29:46;;;;;;;30.70;18.90;;;9.30;99.90;;;;;;5031769;28;20021;-77
2022/01/23 15:32:12;;;;;;;27.58;18.60;;;9.30;99.90;;;;;;5031764;28;20029;-79
2022/01/23 15:34:37;;;;;;;27.45;18.20;;;9.30;99.90;;;;;;5030914;28;20025;-81
2022/01/23 15:37:04;;;;;;;29.38;18.33;;;9.30;99.90;;;;;;5035718;28;20447;-81
2022/01/23 15:39:31;;;;;;;31.02;19.35;;;9.30;99.90;;;;;;5033509;28;20021;-81
2022/01/23 15:41:59;;;;;;;29.83;18.50;;;9.30;99.90;;;;;;5028705;28;20070;-80
2022/01/23 15:44:26;;;;;;;28.00;18.48;;;9.20;99.90;;;;;;5034444;28;20028;-81
2022/01/23 15:46:52;;;;;;;28.98;17.42;;;9.20;99.90;;;;;;5038413;28;20018;-81
2022/01/23 15:49:18;;;;;;;29.63;17.10;;;9.20;99.90;;;;;;5031602;28;20034;-80
2022/01/23 15:51:47;;;;;;;28.00;17.83;;;9.20;99.90;;;;;;5030915;28;20482;-81
2022/01/23 15:54:18;;;;;;;26.00;16.95;;;9.20;99.90;;;;;;5041303;28;20025;-80
2022/01/23 15:56:48;;;;;;;25.38;15.82;;;9.20;99.90;;;;;;5034581;28;20477;-78
2022/01/23 15:59:18;;;;;;;29.58;16.80;;;9.20;99.90;;;;;;5036031;28;20033;-80
2022/01/23 16:01:46;;;;;;;27.02;16.05;;;9.10;99.90;;;;;;5032484;28;20034;-79
2022/01/23 16:04:13;;;;;;;25.70;16.52;;;9.10;99.90;;;;;;5040876;28;20021;-80
2022/01/23 16:06:39;;;;;;;23.45;16.08;;;9.10;99.90;;;;;;5040271;28;20108;-79
2022/01/23 16:09:06;;;;;;;25.48;17.20;;;9.10;99.90;;;;;;5035954;28;20080;-81
2022/01/23 16:11:31;;;;;;;25.30;17.23;;;9.20;99.90;;;;;;5028676;28;20158;-78
2022/01/23 16:13:57;;;;;;;31.08;18.95;;;9.20;99.90;;;;;;5038466;28;20111;-77
2022/01/23 16:16:22;;;;;;;27.17;16.77;;;9.20;99.90;;;;;;5033841;28;20026;-78
2022/01/23 16:18:48;;;;;;;27.95;16.42;;;9.10;99.90;;;;;;5032525;28;20030;-78
2022/01/23 16:21:14;;;;;;;25.35;16.35;;;9.10;99.90;;;;;;5033699;28;20025;-80